Pagina principale
METAR-TAF:

METAR-TAF

Aeroporti :

Chambery / Aix-Les-Bains, Francia

Aeroporto di Chambéry Aix-les-Bains

latitudine: 45-39N, longitudine: 005-53E, altezza: 235 m

Osservazione

Il bollettino è stato emesso 31 minuti fa, alle 15:30 UTC
Vento 2 kt da direzioni variabili
Temperature 8°C
Umidità 71%
Pressione 1023 hPa
Visibilità 10 km o più
Nuvoloso ad un'altezza di 6400 ft

METAR: LFLB 191530Z AUTO VRB02KT 9999 BKN064 08/03 Q1023 NOSIG

Ora: 17:01 (16:01 UTC)

Previsione

Il bollettino è stato emesso 5 ore e 1 minuti fa, alle 11:00 UTC
Previsione valida dal 19 alle 12 UTC al 20 alle 12 UTC
Vento 5 kt da nord
Visibilità 10 km o più
Nuvoloso ad un'altezza di 4000 ft
Probabilità 30%
dal 20 alle 03 UTC al 20 alle 08 UTC
Visibilità: 4000 m
Nuvoloso ad un'altezza di 1300 ft
foschia

TAF: LFLB 191100Z 1912/2012 36005KT 9999 BKN040 PROB30 2003/2008 4000 BR BKN013

Osservazioni e previsioni meteorologiche di più di 4000 aeroporti (messaggi METAR e TAF).

Le stazioni disponibili sono rappresentate dai dischi gialli e rossi sulla carta.

Puntare il mouse per vedere il nome della stazione.

Clicca sopra per visualizzare le osservazioni e previsioni meteorologiche.

Per cambiare la mappa : fare clic sui pulsanti verdi con una croce nera per ingrandire, il pulsante verde con un trattino per diminuire, o sulla freccia verde per le mappe adiacenti.


METAR-TAF: